Time;durP1;ratioP1;P1;durP2;ratioP2;P2;SDS_P1;SDS_P2;PMS_P1;PMS_P2;Temp;Humidity;BMP_temperature;BMP_pressure;BME280_temperature;BME280_humidity;BME280_pressure;Samples;Min_cycle;Max_cycle;Signal;HPM_P1;HPM_P2
2022/11/23 00:01:22;;;;;;;2.90;1.52;;;;;;;;;;5014068;28;20041;-78
2022/11/23 00:04:12;;;;;;;6.45;1.95;;;;;;;;;;5014468;28;20046;-76
2022/11/23 00:07:00;;;;;;;4.32;2.30;;;;;;;;;;5013701;28;20483;-77
2022/11/23 00:09:49;;;;;;;3.75;1.90;;;;;;;;;;5018730;28;20042;-75
2022/11/23 00:12:35;;;;;;;2.90;1.77;;;;;;;;;;5017522;28;20045;-76
2022/11/23 00:15:20;;;;;;;2.28;1.83;;;;;;;;;;5017176;28;20045;-75
2022/11/23 00:18:07;;;;;;;3.00;1.50;;;;;;;;;;5017834;28;20041;-76
2022/11/23 00:20:51;;;;;;;2.00;1.27;;;;;;;;;;5008761;28;20431;-75
2022/11/23 00:23:37;;;;;;;3.72;1.83;;;;;;;;;;5017683;28;20045;-75
2022/11/23 00:26:23;;;;;;;2.13;1.60;;;;;;;;;;5017025;28;20049;-76
2022/11/23 00:29:12;;;;;;;3.38;1.63;;;;;;;;;;5017758;28;20487;-74
2022/11/23 00:31:58;;;;;;;3.15;1.77;;;;;;;;;;5017010;28;20078;-77
2022/11/23 00:34:43;;;;;;;2.42;1.48;;;;;;;;;;5017638;28;20422;-76
2022/11/23 00:37:29;;;;;;;85.47;49.40;;;;;;;;;;5009025;28;20038;-78
2022/11/23 00:40:15;;;;;;;2.55;1.35;;;;;;;;;;5017368;28;20049;-76
2022/11/23 00:43:01;;;;;;;62.15;30.08;;;;;;;;;;5015315;28;20479;-76
2022/11/23 00:45:49;;;;;;;9.15;5.15;;;;;;;;;;5016816;28;20049;-76
2022/11/23 00:48:36;;;;;;;2.67;1.92;;;;;;;;;;5020798;28;20046;-76
2022/11/23 00:51:29;;;;;;;2.63;1.67;;;;;;;;;;5014995;28;20050;-74
2022/11/23 00:54:15;;;;;;;1.50;1.20;;;;;;;;;;5007700;28;20053;-75
2022/11/23 00:57:00;;;;;;;2.65;1.38;;;;;;;;;;5006247;28;20093;-75
2022/11/23 00:59:47;;;;;;;2.75;1.70;;;;;;;;;;5015015;28;20049;-76
2022/11/23 01:02:35;;;;;;;2.00;1.23;;;;;;;;;;5015192;28;20057;-74
2022/11/23 01:05:21;;;;;;;3.97;1.33;;;;;;;;;;5008395;28;20495;-74
2022/11/23 01:08:07;;;;;;;2.88;1.80;;;;;;;;;;5022746;28;20399;-76
2022/11/23 01:10:58;;;;;;;2.38;1.55;;;;;;;;;;5007989;28;20050;-76
2022/11/23 01:13:43;;;;;;;3.22;1.70;;;;;;;;;;5008189;28;20042;-74
2022/11/23 01:16:32;;;;;;;1.65;1.20;;;;;;;;;;5007835;28;20046;-75
2022/11/23 01:19:19;;;;;;;3.58;1.50;;;;;;;;;;5015195;28;20045;-75
2022/11/23 01:22:07;;;;;;;2.55;1.55;;;;;;;;;;5016094;28;20046;-75
2022/11/23 01:24:53;;;;;;;5.82;3.10;;;;;;;;;;5015766;28;20046;-76
2022/11/23 01:27:39;;;;;;;3.70;1.50;;;;;;;;;;5007935;28;20507;-75
2022/11/23 01:30:24;;;;;;;3.50;1.50;;;;;;;;;;5015418;28;20037;-76
2022/11/23 01:33:09;;;;;;;2.65;1.50;;;;;;;;;;5007964;28;20054;-76
2022/11/23 01:35:54;;;;;;;5.82;1.88;;;;;;;;;;5007311;28;20045;-75
2022/11/23 01:38:41;;;;;;;2.65;1.85;;;;;;;;;;5021705;28;20072;-75
2022/11/23 01:41:36;;;;;;;9.13;4.95;;;;;;;;;;5015798;28;20046;-76
2022/11/23 01:44:24;;;;;;;3.03;2.00;;;;;;;;;;5015361;28;20050;-75
2022/11/23 01:47:11;;;;;;;3.22;1.98;;;;;;;;;;5015510;28;20038;-75
2022/11/23 01:49:57;;;;;;;3.80;2.20;;;;;;;;;;5007597;28;20050;-75
2022/11/23 01:52:43;;;;;;;8.68;4.35;;;;;;;;;;5006865;28;20046;-75
2022/11/23 01:55:28;;;;;;;7.82;5.25;;;;;;;;;;5015684;28;20411;-76
2022/11/23 01:58:18;;;;;;;8.48;4.18;;;;;;;;;;5015127;28;20034;-77
2022/11/23 02:01:06;;;;;;;6.40;3.42;;;;;;;;;;5015262;28;20045;-77
2022/11/23 02:03:55;;;;;;;8.30;3.85;;;;;;;;;;5007068;28;20045;-77
2022/11/23 02:06:41;;;;;;;6.32;3.83;;;;;;;;;;5014847;28;20053;-75
2022/11/23 02:09:30;;;;;;;6.28;3.83;;;;;;;;;;5015351;28;20037;-75
2022/11/23 02:12:16;;;;;;;8.13;3.92;;;;;;;;;;5021660;28;20049;-75
2022/11/23 02:15:01;;;;;;;6.85;3.25;;;;;;;;;;5006428;28;20042;-76
2022/11/23 02:17:46;;;;;;;5.45;2.53;;;;;;;;;;5015423;28;20045;-75
2022/11/23 02:20:33;;;;;;;8.50;3.95;;;;;;;;;;5006291;28;20054;-75
2022/11/23 02:23:28;;;;;;;7.43;3.55;;;;;;;;;;5007291;28;20050;-75
2022/11/23 02:26:18;;;;;;;4.70;2.70;;;;;;;;;;5007020;28;20491;-76
2022/11/23 02:29:08;;;;;;;12.07;3.70;;;;;;;;;;5014871;28;20050;-76
2022/11/23 02:31:54;;;;;;;9.32;5.20;;;;;;;;;;5015926;28;20049;-77
2022/11/23 02:34:43;;;;;;;6.65;3.15;;;;;;;;;;5006042;28;20041;-75
2022/11/23 02:37:28;;;;;;;2.92;1.95;;;;;;;;;;5002534;28;20045;-75
2022/11/23 02:40:24;;;;;;;3.28;2.00;;;;;;;;;;5015539;28;20042;-75
2022/11/23 02:43:09;;;;;;;3.83;2.15;;;;;;;;;;5006068;28;20054;-75
2022/11/23 02:45:58;;;;;;;7.75;3.85;;;;;;;;;;5006696;28;20129;-76
2022/11/23 02:48:43;;;;;;;7.53;2.53;;;;;;;;;;5005651;28;20045;-75
2022/11/23 02:51:29;;;;;;;3.40;1.45;;;;;;;;;;5014791;28;20049;-75
2022/11/23 02:54:15;;;;;;;2.80;1.58;;;;;;;;;;5014542;28;20046;-75
2022/11/23 02:57:00;;;;;;;3.67;2.30;;;;;;;;;;5013886;28;20046;-76
2022/11/23 02:59:45;;;;;;;4.78;2.85;;;;;;;;;;5006302;28;20042;-75
2022/11/23 03:02:31;;;;;;;4.13;2.42;;;;;;;;;;5005884;28;20053;-76
2022/11/23 03:05:17;;;;;;;6.55;3.55;;;;;;;;;;5014183;28;20519;-76
2022/11/23 03:08:02;;;;;;;5.47;3.50;;;;;;;;;;5014206;28;20395;-76
2022/11/23 03:10:48;;;;;;;11.77;4.65;;;;;;;;;;5013539;28;20046;-75
2022/11/23 03:13:33;;;;;;;8.15;2.30;;;;;;;;;;5014136;28;20403;-76
2022/11/23 03:16:19;;;;;;;4.00;1.67;;;;;;;;;;5005438;28;20050;-75
2022/11/23 03:19:06;;;;;;;2.78;1.90;;;;;;;;;;5020542;28;20038;-75
2022/11/23 03:21:52;;;;;;;1.77;1.20;;;;;;;;;;5006227;28;20050;-76
2022/11/23 03:24:38;;;;;;;3.53;1.77;;;;;;;;;;5005269;28;20113;-75
2022/11/23 03:27:24;;;;;;;3.83;1.90;;;;;;;;;;5005625;28;20495;-75
2022/11/23 03:30:11;;;;;;;9.32;2.20;;;;;;;;;;5005839;28;20038;-75
2022/11/23 03:32:57;;;;;;;3.80;2.20;;;;;;;;;;5005593;28;20050;-75
2022/11/23 03:35:42;;;;;;;3.00;1.80;;;;;;;;;;5005348;28;20046;-75
2022/11/23 03:38:40;;;;;;;3.30;1.58;;;;;;;;;;5005216;28;20042;-75
2022/11/23 03:41:40;;;;;;;5.75;2.10;;;;;;;;;;5005515;28;20042;-75
2022/11/23 03:44:26;;;;;;;3.05;1.65;;;;;;;;;;5005646;28;20038;-75
2022/11/23 03:47:12;;;;;;;3.72;1.30;;;;;;;;;;5005624;28;20050;-74
2022/11/23 03:49:58;;;;;;;4.18;1.60;;;;;;;;;;5005538;28;20038;-74
2022/11/23 03:52:44;;;;;;;3.60;1.60;;;;;;;;;;5013246;28;20507;-73
2022/11/23 03:55:33;;;;;;;41.38;16.55;;;;;;;;;;5005278;28;20145;-75
2022/11/23 03:58:20;;;;;;;9.63;4.63;;;;;;;;;;5005776;28;20042;-74
2022/11/23 04:01:06;;;;;;;4.75;1.65;;;;;;;;;;5004875;28;20407;-75
2022/11/23 04:03:52;;;;;;;3.25;1.65;;;;;;;;;;5005421;28;20053;-75
2022/11/23 04:06:43;;;;;;;2.70;1.70;;;;;;;;;;5004948;28;20507;-74
2022/11/23 04:09:35;;;;;;;5.93;2.90;;;;;;;;;;5005383;28;20054;-75
2022/11/23 04:12:24;;;;;;;4.20;2.03;;;;;;;;;;5013300;28;20046;-75
2022/11/23 04:15:10;;;;;;;3.08;1.50;;;;;;;;;;5004711;28;20046;-76
2022/11/23 04:17:55;;;;;;;2.17;1.42;;;;;;;;;;5014135;28;20475;-75
2022/11/23 04:20:42;;;;;;;3.10;1.60;;;;;;;;;;5004976;28;20046;-76
2022/11/23 04:23:27;;;;;;;1.85;1.33;;;;;;;;;;5021796;28;20046;-75
2022/11/23 04:26:13;;;;;;;1.63;1.23;;;;;;;;;;5005203;28;20407;-75
2022/11/23 04:29:01;;;;;;;14.43;7.28;;;;;;;;;;5004710;28;20050;-74
2022/11/23 04:31:47;;;;;;;36.75;17.92;;;;;;;;;;5000783;28;20050;-75
2022/11/23 04:34:35;;;;;;;20.65;11.73;;;;;;;;;;5004909;28;20050;-75
2022/11/23 04:37:22;;;;;;;3.10;1.73;;;;;;;;;;5004850;28;20046;-75
2022/11/23 04:40:08;;;;;;;2.53;1.60;;;;;;;;;;5004772;28;20058;-75
2022/11/23 04:43:14;;;;;;;8.50;4.32;;;;;;;;;;5019100;28;20046;-77
2022/11/23 04:46:00;;;;;;;6.47;3.08;;;;;;;;;;5020297;28;20062;-76
2022/11/23 04:48:48;;;;;;;12.05;3.10;;;;;;;;;;5018605;28;20042;-76
2022/11/23 04:51:35;;;;;;;3.95;1.95;;;;;;;;;;5004540;28;20399;-75
2022/11/23 04:54:21;;;;;;;3.25;1.80;;;;;;;;;;5014265;28;20058;-77
2022/11/23 04:57:12;;;;;;;2.25;1.00;;;;;;;;;;5008043;28;20391;-75
2022/11/23 04:59:58;;;;;;;3.25;1.60;;;;;;;;;;5008102;28;20046;-77
2022/11/23 05:02:48;;;;;;;2.72;1.60;;;;;;;;;;5008450;28;20391;-75
2022/11/23 05:05:40;;;;;;;3.40;1.63;;;;;;;;;;5021618;28;20038;-76
2022/11/23 05:08:27;;;;;;;2.78;1.17;;;;;;;;;;5022207;28;20395;-76
2022/11/23 05:11:44;;;;;;;2.28;1.75;;;;;;;;;;5007438;28;20046;-73
2022/11/23 05:14:29;;;;;;;4.70;1.80;;;;;;;;;;5008186;28;20058;-76
2022/11/23 05:17:14;;;;;;;3.50;1.85;;;;;;;;;;5021311;28;20426;-77
2022/11/23 05:20:00;;;;;;;4.95;2.60;;;;;;;;;;5007917;28;20475;-75
2022/11/23 05:22:49;;;;;;;4.13;1.58;;;;;;;;;;5021493;28;20042;-76
2022/11/23 05:25:39;;;;;;;3.00;1.83;;;;;;;;;;5007278;28;20621;-75
2022/11/23 05:28:26;;;;;;;5.65;2.22;;;;;;;;;;5007682;28;20042;-74
2022/11/23 05:31:12;;;;;;;4.47;2.00;;;;;;;;;;5005010;28;20042;-74
2022/11/23 05:33:58;;;;;;;3.08;1.90;;;;;;;;;;5007520;28;20498;-75
2022/11/23 05:36:53;;;;;;;;;;;;;;;;;;5007697;28;20427;-75
2022/11/23 05:39:38;;;;;;;5.57;2.90;;;;;;;;;;5006895;28;20288;-75
2022/11/23 05:42:24;;;;;;;4.95;2.97;;;;;;;;;;5007495;28;20038;-75
2022/11/23 05:45:13;;;;;;;3.15;1.95;;;;;;;;;;5007576;28;20046;-75
2022/11/23 05:48:03;;;;;;;1.58;1.10;;;;;;;;;;5007118;28;20474;-74
2022/11/23 05:51:07;;;;;;;6.43;3.05;;;;;;;;;;5015459;28;20480;-75
2022/11/23 05:53:57;;;;;;;4.85;2.70;;;;;;;;;;5007009;28;20049;-74
2022/11/23 05:56:51;;;;;;;42.35;17.88;;;;;;;;;;5006931;28;20464;-76
2022/11/23 05:59:41;;;;;;;11.68;6.28;;;;;;;;;;5015246;28;20053;-76
2022/11/23 06:02:30;;;;;;;6.35;3.22;;;;;;;;;;5007046;28;20046;-74
2022/11/23 06:05:20;;;;;;;3.80;1.88;;;;;;;;;;5007975;28;20050;-76
2022/11/23 06:08:08;;;;;;;3.75;2.33;;;;;;;;;;5014800;28;20049;-76
2022/11/23 06:10:53;;;;;;;4.30;2.38;;;;;;;;;;5015084;28;20046;-77
2022/11/23 06:13:38;;;;;;;8.60;3.72;;;;;;;;;;5015177;28;20046;-75
2022/11/23 06:16:24;;;;;;;11.10;5.30;;;;;;;;;;5014189;28;20042;-75
2022/11/23 06:19:21;;;;;;;11.73;5.40;;;;;;;;;;5006281;28;20042;-75
2022/11/23 06:22:07;;;;;;;14.57;6.22;;;;;;;;;;5020359;28;20430;-76
2022/11/23 06:25:00;;;;;;;20.55;9.20;;;;;;;;;;5007157;28;20415;-76
2022/11/23 06:27:58;;;;;;;9.60;5.55;;;;;;;;;;5006588;28;20046;-76
2022/11/23 06:30:49;;;;;;;9.82;5.32;;;;;;;;;;5004725;28;20041;-76
2022/11/23 06:33:35;;;;;;;7.78;4.00;;;;;;;;;;5006774;28;20396;-75
2022/11/23 06:36:20;;;;;;;7.60;3.95;;;;;;;;;;5005720;28;20046;-75
2022/11/23 06:39:09;;;;;;;10.13;5.18;;;;;;;;;;5006828;28;20049;-76
2022/11/23 06:41:54;;;;;;;7.45;3.42;;;;;;;;;;5000306;28;20042;-75
2022/11/23 06:44:40;;;;;;;7.93;3.50;;;;;;;;;;5014154;28;20041;-77
2022/11/23 06:47:27;;;;;;;6.63;3.42;;;;;;;;;;5006184;28;20042;-76
2022/11/23 06:50:15;;;;;;;5.85;3.72;;;;;;;;;;5006177;28;20456;-76
2022/11/23 06:53:02;;;;;;;10.05;6.00;;;;;;;;;;5020082;28;20041;-76
2022/11/23 06:55:58;;;;;;;10.50;6.13;;;;;;;;;;5006330;28;20034;-76
2022/11/23 06:58:44;;;;;;;5.72;2.88;;;;;;;;;;5013940;28;20041;-75
2022/11/23 07:01:36;;;;;;;5.55;3.05;;;;;;;;;;5020756;28;20038;-75
2022/11/23 07:04:25;;;;;;;7.70;3.42;;;;;;;;;;5005548;28;20490;-77
2022/11/23 07:07:11;;;;;;;7.05;3.65;;;;;;;;;;5005839;28;20061;-76
2022/11/23 07:10:04;;;;;;;2.97;1.73;;;;;;;;;;5005997;28;20054;-76
2022/11/23 07:13:04;;;;;;;3.92;2.13;;;;;;;;;;5004986;28;20062;-75
2022/11/23 07:15:50;;;;;;;6.07;2.70;;;;;;;;;;4992452;28;20609;-76
2022/11/23 07:18:36;;;;;;;5.82;3.97;;;;;;;;;;5005441;28;20042;-76
2022/11/23 07:21:22;;;;;;;16.92;6.85;;;;;;;;;;5014049;28;20410;-77
2022/11/23 07:24:08;;;;;;;5.80;3.78;;;;;;;;;;5005534;28;20033;-77
2022/11/23 07:26:53;;;;;;;9.15;4.57;;;;;;;;;;5005294;28;20046;-76
2022/11/23 07:29:39;;;;;;;27.15;11.90;;;;;;;;;;5002934;28;20042;-77
2022/11/23 07:32:25;;;;;;;24.98;12.38;;;;;;;;;;5013573;28;20058;-77
2022/11/23 07:35:11;;;;;;;21.77;8.85;;;;;;;;;;5005542;28;20076;-76
2022/11/23 07:38:00;;;;;;;12.95;6.60;;;;;;;;;;5005844;28;20511;-76
2022/11/23 07:40:48;;;;;;;15.18;6.63;;;;;;;;;;5005134;28;20045;-77
2022/11/23 07:43:43;;;;;;;14.65;6.70;;;;;;;;;;5006736;28;20042;-81
2022/11/23 07:46:27;;;;;;;12.40;5.70;;;;;;;;;;5014583;28;20053;-78
2022/11/23 07:49:12;;;;;;;14.02;5.60;;;;;;;;;;5016466;28;20054;-79
2022/11/23 07:51:58;;;;;;;14.05;6.43;;;;;;;;;;5013828;28;20042;-78
2022/11/23 07:54:43;;;;;;;6.53;3.78;;;;;;;;;;5013219;28;20046;-77
2022/11/23 07:57:29;;;;;;;7.47;3.58;;;;;;;;;;5013662;28;20391;-81
2022/11/23 08:00:15;;;;;;;20.75;5.20;;;;;;;;;;5020143;28;20053;-78
2022/11/23 08:03:00;;;;;;;4.47;2.83;;;;;;;;;;5013009;28;20045;-79
2022/11/23 08:05:46;;;;;;;7.80;3.80;;;;;;;;;;5014118;28;20050;-77
2022/11/23 08:08:33;;;;;;;6.60;3.55;;;;;;;;;;5012930;28;20046;-78
2022/11/23 08:11:21;;;;;;;10.48;5.63;;;;;;;;;;5020040;28;20050;-78
2022/11/23 08:14:05;;;;;;;7.85;4.20;;;;;;;;;;5020304;28;20046;-78
2022/11/23 08:16:51;;;;;;;9.63;5.20;;;;;;;;;;5018001;28;20407;-79
2022/11/23 08:19:36;;;;;;;5.35;3.45;;;;;;;;;;5019309;28;20050;-78
2022/11/23 08:22:22;;;;;;;8.02;4.05;;;;;;;;;;5025005;28;20046;-79
2022/11/23 08:25:08;;;;;;;10.60;6.85;;;;;;;;;;5019230;28;20484;-79
2022/11/23 08:27:59;;;;;;;11.77;6.25;;;;;;;;;;5019960;28;20041;-78
2022/11/23 08:30:45;;;;;;;15.18;6.53;;;;;;;;;;5022929;28;20480;-79
2022/11/23 08:33:30;;;;;;;8.88;5.82;;;;;;;;;;5020332;28;20046;-77
2022/11/23 08:36:15;;;;;;;7.63;4.88;;;;;;;;;;5017005;28;20488;-77
2022/11/23 08:39:01;;;;;;;10.35;4.68;;;;;;;;;;5016771;28;20054;-79
2022/11/23 08:41:46;;;;;;;12.10;7.82;;;;;;;;;;5016099;28;20047;-77
2022/11/23 08:44:32;;;;;;;7.03;4.50;;;;;;;;;;5016626;28;20397;-78
2022/11/23 08:47:18;;;;;;;8.98;6.03;;;;;;;;;;5023610;28;20399;-78
2022/11/23 08:50:03;;;;;;;7.82;4.60;;;;;;;;;;5023326;28;20038;-77
2022/11/23 08:52:57;;;;;;;8.57;5.18;;;;;;;;;;5016405;28;20054;-79
2022/11/23 08:55:42;;;;;;;6.13;3.58;;;;;;;;;;5008876;28;20042;-78
2022/11/23 08:58:28;;;;;;;11.82;5.95;;;;;;;;;;5015663;28;20049;-79
2022/11/23 09:01:15;;;;;;;13.15;8.27;;;;;;;;;;5015578;28;20423;-78
2022/11/23 09:04:03;;;;;;;8.70;5.50;;;;;;;;;;5016296;28;20049;-79
2022/11/23 09:06:49;;;;;;;8.10;5.22;;;;;;;;;;5015983;28;20423;-79
2022/11/23 09:09:34;;;;;;;9.20;5.38;;;;;;;;;;5016129;28;20042;-76
2022/11/23 09:12:20;;;;;;;11.77;5.88;;;;;;;;;;5015656;28;20475;-76
2022/11/23 09:15:05;;;;;;;12.38;7.05;;;;;;;;;;5016136;28;20042;-78
2022/11/23 09:17:51;;;;;;;7.30;4.80;;;;;;;;;;5016261;28;20054;-78
2022/11/23 09:20:39;;;;;;;13.55;6.68;;;;;;;;;;5022435;28;20046;-78
2022/11/23 09:23:25;;;;;;;7.57;3.92;;;;;;;;;;5016425;28;20104;-77
2022/11/23 09:26:11;;;;;;;8.68;4.00;;;;;;;;;;5022935;28;20054;-78
2022/11/23 09:28:56;;;;;;;7.50;4.25;;;;;;;;;;5016480;28;20061;-79
2022/11/23 09:31:41;;;;;;;11.27;5.18;;;;;;;;;;5017518;28;20049;-78
2022/11/23 09:34:26;;;;;;;12.43;5.80;;;;;;;;;;5015661;28;20400;-76
2022/11/23 09:37:12;;;;;;;12.38;7.20;;;;;;;;;;5015666;28;20042;-78
2022/11/23 09:39:58;;;;;;;11.90;5.25;;;;;;;;;;5015127;28;20050;-79
2022/11/23 09:42:48;;;;;;;10.15;5.05;;;;;;;;;;5021800;28;20041;-77
2022/11/23 09:45:32;;;;;;;5.72;3.03;;;;;;;;;;5015860;28;20046;-77
2022/11/23 09:48:29;;;;;;;5.22;3.55;;;;;;;;;;5015201;28;20042;-79
2022/11/23 09:51:20;;;;;;;8.95;4.53;;;;;;;;;;5015580;28;20057;-79
2022/11/23 09:54:30;;;;;;;7.05;3.58;;;;;;;;;;5015515;28;20042;-77
2022/11/23 09:57:21;;;;;;;9.50;4.63;;;;;;;;;;5015094;28;20046;-80
2022/11/23 10:00:17;;;;;;;8.75;4.72;;;;;;;;;;5015384;28;20034;-78
2022/11/23 10:03:02;;;;;;;13.18;7.28;;;;;;;;;;5021696;28;20418;-78
2022/11/23 10:06:26;;;;;;;72.10;40.17;;;;;;;;;;5015638;28;20042;-78
2022/11/23 10:09:31;;;;;;;85.40;39.88;;;;;;;;;;5015806;28;20475;-78
2022/11/23 10:12:32;;;;;;;27.35;16.35;;;;;;;;;;5021548;28;20042;-77
2022/11/23 10:15:17;;;;;;;19.05;11.82;;;;;;;;;;5015045;28;20046;-80
2022/11/23 10:18:25;;;;;;;11.93;7.57;;;;;;;;;;5014556;28;20058;-78
2022/11/23 10:21:29;;;;;;;12.90;7.75;;;;;;;;;;5014920;28;20042;-78
2022/11/23 10:24:20;;;;;;;13.48;7.22;;;;;;;;;;5014894;28;20054;-77
2022/11/23 10:27:17;;;;;;;8.20;5.20;;;;;;;;;;5021778;28;20046;-78
2022/11/23 10:30:14;;;;;;;10.55;4.80;;;;;;;;;;5015117;28;20041;-77
2022/11/23 10:33:16;;;;;;;9.52;5.40;;;;;;;;;;4975622;28;20050;-79
2022/11/23 10:36:01;;;;;;;10.57;6.13;;;;;;;;;;4975503;28;20047;-79
2022/11/23 10:38:56;;;;;;;11.30;6.38;;;;;;;;;;4975355;28;20059;-79
2022/11/23 10:41:43;;;;;;;;;;;;;;;;;;4976095;28;20055;-81
2022/11/23 10:44:38;;;;;;;19.73;10.57;;;;;;;;;;4975420;28;19914;-81
2022/11/23 10:47:48;;;;;;;13.88;8.18;;;;;;;;;;4975416;28;20058;-81
2022/11/23 10:50:36;;;;;;;14.45;8.65;;;;;;;;;;4975503;28;20444;-78
2022/11/23 10:53:25;;;;;;;11.38;6.90;;;;;;;;;;4981093;28;20042;-81
2022/11/23 10:56:13;;;;;;;10.88;6.90;;;;;;;;;;4981567;28;20039;-77
2022/11/23 10:58:59;;;;;;;9.70;5.75;;;;;;;;;;4975291;28;20051;-77
2022/11/23 11:01:58;;;;;;;13.45;6.97;;;;;;;;;;4981894;28;20396;-77
2022/11/23 11:04:45;;;;;;;13.35;7.63;;;;;;;;;;4975436;28;20043;-77
2022/11/23 11:07:31;;;;;;;14.88;7.75;;;;;;;;;;4981253;28;20051;-80
2022/11/23 11:10:56;;;;;;;15.23;9.70;;;;;;;;;;4975890;28;20043;-79
2022/11/23 11:13:47;;;;;;;15.02;7.43;;;;;;;;;;4978869;28;20058;-77
2022/11/23 11:16:36;;;;;;;12.05;5.60;;;;;;;;;;4977670;28;20043;-80
2022/11/23 11:19:26;;;;;;;11.35;6.97;;;;;;;;;;4975127;28;20051;-78
2022/11/23 11:22:47;;;;;;;10.98;6.38;;;;;;;;;;4974493;28;20480;-79
2022/11/23 11:25:35;;;;;;;10.23;5.20;;;;;;;;;;4934530;29;20059;-80
2022/11/23 11:28:25;;;;;;;11.13;6.35;;;;;;;;;;4974316;28;20051;-77
2022/11/23 11:31:34;;;;;;;8.18;5.15;;;;;;;;;;4989108;28;20050;-77
2022/11/23 11:34:25;;;;;;;13.68;8.75;;;;;;;;;;5014489;28;20045;-79
2022/11/23 11:38:04;;;;;;;13.07;8.95;;;;;;;;;;5019811;28;20045;-79
2022/11/23 11:40:51;;;;;;;13.45;6.32;;;;;;;;;;4934436;29;20051;-80
2022/11/23 11:43:44;;;;;;;10.45;6.32;;;;;;;;;;5013353;28;20046;-78
2022/11/23 11:46:39;;;;;;;7.90;3.13;;;;;;;;;;5013877;28;20049;-79
2022/11/23 11:49:30;;;;;;;10.02;4.95;;;;;;;;;;5013432;28;20046;-77
2022/11/23 11:52:22;;;;;;;13.65;6.32;;;;;;;;;;5013713;28;20058;-78
2022/11/23 11:55:26;;;;;;;8.38;5.43;;;;;;;;;;5014063;28;20045;-79
2022/11/23 11:58:14;;;;;;;10.82;5.43;;;;;;;;;;5012943;28;20046;-78
2022/11/23 12:01:12;;;;;;;11.68;5.95;;;;;;;;;;5020361;28;20355;-78
2022/11/23 12:04:05;;;;;;;13.57;7.07;;;;;;;;;;5015605;28;20049;-78
2022/11/23 12:06:58;;;;;;;13.83;8.20;;;;;;;;;;5017776;28;20054;-79
2022/11/23 12:09:48;;;;;;;7.45;4.32;;;;;;;;;;5016786;28;20491;-78
2022/11/23 12:12:35;;;;;;;6.18;4.65;;;;;;;;;;5016898;28;20049;-80
2022/11/23 12:15:26;;;;;;;5.93;3.53;;;;;;;;;;5017311;28;20045;-78
2022/11/23 12:18:49;;;;;;;7.18;4.13;;;;;;;;;;5016282;28;20057;-78
2022/11/23 12:22:12;;;;;;;10.20;5.88;;;;;;;;;;4992416;28;20042;-78
2022/11/23 12:25:03;;;;;;;11.57;5.50;;;;;;;;;;5016678;28;20050;-79
2022/11/23 12:28:26;;;;;;;5.45;3.22;;;;;;;;;;5016685;28;20049;-80
2022/11/23 12:31:31;;;;;;;5.53;2.85;;;;;;;;;;5016448;28;20053;-76
2022/11/23 12:34:32;;;;;;;5.63;2.30;;;;;;;;;;5017082;28;20042;-78
2022/11/23 12:37:50;;;;;;;5.28;2.92;;;;;;;;;;5016900;28;20471;-78
2022/11/23 12:40:51;;;;;;;5.80;2.92;;;;;;;;;;5012695;28;20050;-78
2022/11/23 12:43:57;;;;;;;7.65;4.63;;;;;;;;;;5023315;28;20046;-77
2022/11/23 12:47:07;;;;;;;20.42;10.43;;;;;;;;;;5016429;28;20050;-79
2022/11/23 12:50:21;;;;;;;18.17;10.55;;;;;;;;;;5016747;28;20046;-79
2022/11/23 12:53:43;;;;;;;18.33;8.73;;;;;;;;;;5016213;28;20483;-79
2022/11/23 12:56:54;;;;;;;16.55;8.80;;;;;;;;;;5019892;28;20041;-77
2022/11/23 13:00:13;;;;;;;13.88;8.75;;;;;;;;;;5023558;28;20037;-78
2022/11/23 13:02:58;;;;;;;23.60;12.43;;;;;;;;;;5023302;28;20495;-79
2022/11/23 13:06:05;;;;;;;15.43;8.55;;;;;;;;;;5015946;28;20054;-77
2022/11/23 13:09:20;;;;;;;11.27;6.45;;;;;;;;;;5015649;28;20050;-78
2022/11/23 13:12:47;;;;;;;18.27;9.67;;;;;;;;;;5016065;28;20049;-78
2022/11/23 13:15:47;;;;;;;39.90;16.17;;;;;;;;;;5021132;28;20049;-78
2022/11/23 13:19:13;;;;;;;27.55;18.25;;;;;;;;;;5016101;28;20045;-80
2022/11/23 13:21:59;;;;;;;12.70;8.05;;;;;;;;;;5015882;28;20046;-80
2022/11/23 13:25:21;;;;;;;10.38;6.38;;;;;;;;;;5016235;28;20046;-78
2022/11/23 13:28:31;;;;;;;13.00;7.88;;;;;;;;;;4985893;28;20075;-77
2022/11/23 13:31:32;;;;;;;10.52;6.97;;;;;;;;;;5015686;28;20054;-77
2022/11/23 13:34:53;;;;;;;13.52;7.00;;;;;;;;;;5022669;28;20042;-77
2022/11/23 13:37:56;;;;;;;13.32;7.93;;;;;;;;;;4935310;29;20489;-78
2022/11/23 13:40:43;;;;;;;21.48;13.57;;;;;;;;;;5015895;28;20046;-78
2022/11/23 13:43:32;;;;;;;25.40;13.60;;;;;;;;;;5015418;28;20042;-78
2022/11/23 13:46:28;;;;;;;19.35;13.05;;;;;;;;;;5015918;28;20050;-79
2022/11/23 13:49:40;;;;;;;29.17;20.10;;;;;;;;;;5015999;28;20049;-78
2022/11/23 13:52:29;;;;;;;22.48;16.27;;;;;;;;;;5015555;28;20049;-79
2022/11/23 13:55:19;;;;;;;16.35;8.82;;;;;;;;;;5022572;28;20046;-80
2022/11/23 13:58:22;;;;;;;17.80;10.95;;;;;;;;;;5021325;28;20038;-78
2022/11/23 14:01:08;;;;;;;17.92;12.73;;;;;;;;;;5016255;28;20049;-77
2022/11/23 14:03:59;;;;;;;15.93;11.38;;;;;;;;;;5022079;28;20041;-78
2022/11/23 14:06:54;;;;;;;16.73;12.50;;;;;;;;;;5015590;28;20058;-79
2022/11/23 14:09:45;;;;;;;21.83;15.57;;;;;;;;;;5022441;28;20487;-79
2022/11/23 14:13:15;;;;;;;25.35;16.30;;;;;;;;;;5015052;28;20391;-78
2022/11/23 14:16:02;;;;;;;27.45;17.42;;;;;;;;;;4935969;29;20052;-77
2022/11/23 14:19:05;;;;;;;27.20;15.68;;;;;;;;;;5021378;28;20050;-79
2022/11/23 14:22:20;;;;;;;27.92;13.45;;;;;;;;;;5021546;28;20038;-79
2022/11/23 14:25:06;;;;;;;34.60;15.48;;;;;;;;;;5021818;28;20050;-78
2022/11/23 14:28:08;;;;;;;46.40;18.35;;;;;;;;;;5014484;28;20475;-79
2022/11/23 14:31:11;;;;;;;57.45;23.75;;;;;;;;;;5014838;28;20053;-79
2022/11/23 14:34:03;;;;;;;22.05;10.05;;;;;;;;;;5014642;28;20427;-76
2022/11/23 14:37:26;;;;;;;92.80;55.60;;;;;;;;;;5014881;28;20045;-78
2022/11/23 14:40:36;;;;;;;29.15;14.93;;;;;;;;;;5016281;28;20399;-79
2022/11/23 14:43:25;;;;;;;19.63;11.35;;;;;;;;;;5014522;28;20050;-78
2022/11/23 14:46:17;;;;;;;56.72;27.33;;;;;;;;;;5020986;28;20046;-79
2022/11/23 14:49:08;;;;;;;30.73;17.98;;;;;;;;;;5014153;28;20054;-79
2022/11/23 14:51:54;;;;;;;30.08;15.07;;;;;;;;;;5014986;28;20042;-77
2022/11/23 14:54:47;;;;;;;27.13;16.40;;;;;;;;;;5020536;28;20042;-79
2022/11/23 14:57:40;;;;;;;25.95;14.57;;;;;;;;;;5020759;28;20045;-79
2022/11/23 15:00:36;;;;;;;31.27;16.17;;;;;;;;;;5014299;28;20116;-80
2022/11/23 15:03:26;;;;;;;38.10;20.42;;;;;;;;;;5013925;28;20046;-79
2022/11/23 15:06:16;;;;;;;51.13;24.48;;;;;;;;;;5014127;28;20050;-79
2022/11/23 15:09:30;;;;;;;38.42;20.80;;;;;;;;;;5013617;28;20495;-80
2022/11/23 15:12:43;;;;;;;29.23;17.00;;;;;;;;;;5021067;28;20054;-79
2022/11/23 15:15:31;;;;;;;32.22;19.23;;;;;;;;;;5020403;28;20391;-78
2022/11/23 15:18:37;;;;;;;38.75;19.05;;;;;;;;;;5019729;28;20041;-77
2022/11/23 15:21:27;;;;;;;36.25;19.17;;;;;;;;;;5013861;28;20057;-79
2022/11/23 15:24:26;;;;;;;16.95;9.48;;;;;;;;;;5019564;28;20046;-78
2022/11/23 15:27:23;;;;;;;20.17;12.40;;;;;;;;;;5013549;28;20550;-78
2022/11/23 15:30:25;;;;;;;23.48;14.70;;;;;;;;;;5019749;28;20050;-77
2022/11/23 15:33:10;;;;;;;25.73;16.05;;;;;;;;;;5014240;28;20440;-80
2022/11/23 15:35:56;;;;;;;28.58;15.75;;;;;;;;;;5013740;28;20034;-79
2022/11/23 15:38:42;;;;;;;28.45;18.13;;;;;;;;;;5019053;28;20430;-79
2022/11/23 15:41:29;;;;;;;21.60;13.32;;;;;;;;;;5013902;28;20050;-80
2022/11/23 15:44:23;;;;;;;16.38;8.85;;;;;;;;;;5004957;28;20045;-77
2022/11/23 15:47:26;;;;;;;25.98;13.57;;;;;;;;;;5013632;28;20049;-78
2022/11/23 15:50:12;;;;;;;29.25;15.32;;;;;;;;;;5013322;28;20121;-79
2022/11/23 15:53:01;;;;;;;26.83;15.98;;;;;;;;;;5013074;28;20053;-79
2022/11/23 15:55:48;;;;;;;25.20;16.02;;;;;;;;;;5020633;28;20046;-80
2022/11/23 15:58:34;;;;;;;30.70;14.95;;;;;;;;;;5012910;28;20511;-78
2022/11/23 16:01:20;;;;;;;30.40;18.13;;;;;;;;;;5014067;28;20479;-79
2022/11/23 16:04:42;;;;;;;13.73;8.85;;;;;;;;;;5019924;28;20045;-79
2022/11/23 16:07:28;;;;;;;32.03;18.73;;;;;;;;;;5019740;28;20037;-78
2022/11/23 16:10:17;;;;;;;29.10;17.48;;;;;;;;;;5019304;28;20383;-78
2022/11/23 16:13:04;;;;;;;28.80;17.00;;;;;;;;;;5019284;28;20045;-79
2022/11/23 16:15:58;;;;;;;28.58;16.63;;;;;;;;;;5013633;28;20383;-77
2022/11/23 16:18:47;;;;;;;39.03;24.67;;;;;;;;;;5019999;28;20046;-79
2022/11/23 16:21:32;;;;;;;31.90;21.27;;;;;;;;;;5022880;28;20050;-79
2022/11/23 16:24:21;;;;;;;35.45;22.00;;;;;;;;;;5024132;28;20046;-80
2022/11/23 16:27:14;;;;;;;26.45;17.95;;;;;;;;;;5013256;28;20042;-81
2022/11/23 16:30:02;;;;;;;32.03;19.58;;;;;;;;;;5013739;28;20038;-79
2022/11/23 16:32:47;;;;;;;23.00;13.77;;;;;;;;;;4974755;28;20509;-78
2022/11/23 16:35:32;;;;;;;26.05;14.90;;;;;;;;;;4973742;28;20055;-79
2022/11/23 16:38:18;;;;;;;24.88;15.82;;;;;;;;;;4973699;28;20043;-78
2022/11/23 16:41:03;;;;;;;30.98;18.13;;;;;;;;;;4973681;28;20488;-79
2022/11/23 16:43:54;;;;;;;14.35;9.75;;;;;;;;;;4980613;28;20051;-79
2022/11/23 16:46:39;;;;;;;26.48;17.83;;;;;;;;;;4973803;28;20054;-79
2022/11/23 16:49:25;;;;;;;30.90;18.35;;;;;;;;;;4972729;28;20059;-81
2022/11/23 16:52:11;;;;;;;29.13;18.00;;;;;;;;;;4977620;28;20054;-83
2022/11/23 16:54:57;;;;;;;27.35;16.42;;;;;;;;;;4975652;28;20042;-83
2022/11/23 16:57:43;;;;;;;20.50;14.45;;;;;;;;;;4977146;28;20058;-83